Time;durP1;ratioP1;P1;durP2;ratioP2;P2;SDS_P1;SDS_P2;PMS_P1;PMS_P2;Temp;Humidity;BMP_temperature;BMP_pressure;BME280_temperature;BME280_humidity;BME280_pressure;Samples;Min_cycle;Max_cycle;Signal;HPM_P1;HPM_P2
2023/03/28 00:01:10;;;;;;;37.90;33.80;;;;;;;-3.01;72.01;97539.91;109509;1289;22259;-83
2023/03/28 00:03:39;;;;;;;40.80;36.50;;;;;;;-3.03;72.27;97537.05;109639;1289;22239;-83
2023/03/28 00:06:10;;;;;;;46.10;41.10;;;;;;;-3.06;72.18;97536.51;109490;1289;22207;-82
2023/03/28 00:08:39;;;;;;;52.80;46.60;;;;;;;-3.12;72.30;97533.90;109619;1289;22929;-83
2023/03/28 00:11:18;;;;;;;42.20;36.90;;;;;;;-3.11;72.36;97541.67;109421;1280;22179;-84
2023/03/28 00:13:52;;;;;;;39.30;33.30;;;;;;;-3.13;72.78;97547.53;109648;1289;22190;-84
2023/03/28 00:16:20;;;;;;;41.10;34.60;;;;;;;-3.10;73.29;97546.56;109657;1289;22382;-84
2023/03/28 00:18:49;;;;;;;38.00;32.40;;;;;;;-3.09;73.50;97540.27;109303;1289;218876;-84
2023/03/28 00:21:24;;;;;;;35.90;32.10;;;;;;;-3.09;73.13;97541.53;109658;1289;22246;-84
2023/03/28 00:23:55;;;;;;;35.50;30.20;;;;;;;-3.10;73.32;97543.65;109636;1289;22173;-84
2023/03/28 00:26:25;;;;;;;34.70;29.90;;;;;;;-3.12;73.32;97545.23;109638;1289;23004;-84
2023/03/28 00:28:55;;;;;;;33.30;29.80;;;;;;;-3.14;72.93;97547.39;109596;1289;22183;-84
2023/03/28 00:31:25;;;;;;;35.10;29.90;;;;;;;-3.15;73.00;97548.83;109591;1289;23209;-84
2023/03/28 00:33:53;;;;;;;32.30;27.70;;;;;;;-3.14;73.04;97543.73;109634;1289;22226;-83
2023/03/28 00:36:25;;;;;;;29.00;25.60;;;;;;;-3.08;72.91;97543.55;109607;1289;23006;-83
2023/03/28 00:38:57;;;;;;;31.00;27.70;;;;;;;-3.04;73.16;97536.98;109632;1289;22675;-83
2023/03/28 00:41:29;;;;;;;30.20;26.80;;;;;;;-3.03;73.21;97535.83;109668;1289;22140;-83
2023/03/28 00:43:58;;;;;;;30.80;27.60;;;;;;;-3.06;73.28;97534.55;109692;1289;23030;-83
2023/03/28 00:46:40;;;;;;;31.90;28.50;;;;;;;-3.09;73.04;97533.88;109740;1289;22965;-83
2023/03/28 00:49:13;;;;;;;29.90;26.90;;;;;;;-3.14;73.14;97535.63;109626;1289;22146;-83
2023/03/28 00:51:49;;;;;;;33.40;29.90;;;;;;;-3.20;72.86;97535.16;109622;1289;22756;-83
2023/03/28 00:54:19;;;;;;;32.30;29.00;;;;;;;-3.25;72.90;97539.55;109616;1289;22970;-84
2023/03/28 00:56:52;;;;;;;32.90;29.40;;;;;;;-3.28;72.82;97539.70;109641;1289;22339;-83
2023/03/28 00:59:23;;;;;;;34.70;28.50;;;;;;;-3.30;73.11;97537.49;109644;1289;22107;-83
2023/03/28 01:01:54;;;;;;;33.50;28.00;;;;;;;-3.28;73.11;97531.86;109649;1289;22185;-84
2023/03/28 01:04:26;;;;;;;34.20;29.00;;;;;;;-3.24;72.90;97534.20;109650;1289;22275;-83
2023/03/28 01:06:57;;;;;;;35.30;29.40;;;;;;;-3.21;72.90;97536.35;109604;1289;22975;-82
2023/03/28 01:09:27;;;;;;;37.20;29.80;;;;;;;-3.18;73.09;97534.13;109627;1289;22316;-82
2023/03/28 01:11:57;;;;;;;33.50;29.90;;;;;;;-3.19;73.09;97536.86;109589;1289;22263;-82
2023/03/28 01:14:27;;;;;;;34.10;30.40;;;;;;;-3.23;73.07;97542.86;109631;1289;22160;-83
2023/03/28 01:17:01;;;;;;;33.00;29.60;;;;;;;-3.29;73.12;97538.95;109643;1289;23150;-83
2023/03/28 01:20:01;;;;;;;32.90;29.20;;;;;;;-3.34;73.17;97541.42;109629;1289;22398;-84
2023/03/28 01:23:02;;;;;;;34.60;30.80;;;;;;;-3.39;73.29;97540.64;109636;1289;22187;-85
2023/03/28 01:25:58;;;;;;;32.80;29.30;;;;;;;-3.45;73.27;97540.64;109655;1289;22407;-85
2023/03/28 01:29:01;;;;;;;33.30;29.00;;;;;;;-3.42;73.14;97537.13;109643;1283;22228;-84
2023/03/28 01:32:05;;;;;;;33.80;30.00;;;;;;;-3.41;73.20;97530.48;109647;1289;22277;-84
2023/03/28 01:35:09;;;;;;;35.90;31.40;;;;;;;-3.42;73.22;97530.45;109504;1289;22792;-83
2023/03/28 01:37:46;;;;;;;35.40;31.70;;;;;;;-3.43;73.40;97531.67;109667;1289;22293;-83
2023/03/28 01:40:40;;;;;;;36.40;30.70;;;;;;;-3.46;73.19;97535.19;109643;1282;22308;-83
2023/03/28 01:43:27;;;;;;;36.80;32.40;;;;;;;-3.48;73.27;97538.29;109656;1289;22257;-84
2023/03/28 01:46:03;;;;;;;37.10;33.20;;;;;;;-3.51;73.35;97533.98;109656;1286;22436;-84
2023/03/28 01:48:53;;;;;;;35.90;32.00;;;;;;;-3.54;73.31;97536.24;109629;1268;22150;-84
2023/03/28 01:51:21;;;;;;;32.70;28.90;;;;;;;-3.55;73.44;97536.57;109670;1289;22851;-84
2023/03/28 01:54:28;;;;;;;34.30;30.60;;;;;;;-3.52;73.95;97536.38;109648;1289;22287;-83
2023/03/28 01:57:16;;;;;;;36.70;32.70;;;;;;;-3.52;73.78;97534.52;109303;1293;22243;-84
2023/03/28 01:59:53;;;;;;;38.10;32.80;;;;;;;-3.54;73.66;97530.94;109253;1293;22264;-85
2023/03/28 02:02:55;;;;;;;35.20;31.50;;;;;;;-3.55;73.63;97528.52;108491;1300;22899;-84
2023/03/28 02:05:31;;;;;;;36.70;32.70;;;;;;;-3.56;73.60;97522.76;108427;1300;22335;-84
2023/03/28 02:08:03;;;;;;;36.30;32.50;;;;;;;-3.57;73.71;97526.30;108451;1300;22159;-84
2023/03/28 02:10:45;;;;;;;37.40;31.00;;;;;;;-3.59;73.66;97521.49;108444;1301;22201;-84
2023/03/28 02:13:43;;;;;;;34.10;30.80;;;;;;;-3.57;73.94;97529.14;108512;1300;22889;-84
2023/03/28 02:16:52;;;;;;;35.80;32.10;;;;;;;-3.57;73.81;97526.34;108144;1300;22193;-84
2023/03/28 02:19:39;;;;;;;38.70;32.40;;;;;;;-3.58;73.74;97528.30;108472;1300;22255;-85
2023/03/28 02:22:14;;;;;;;35.40;31.70;;;;;;;-3.56;74.11;97532.23;108513;1300;22204;-85
2023/03/28 02:24:53;;;;;;;36.60;32.70;;;;;;;-3.31;75.06;97527.34;108372;1301;22437;-83
2023/03/28 02:27:44;;;;;;;36.70;32.70;;;;;;;-3.25;74.39;97519.48;108312;1296;22322;-85
2023/03/28 02:30:21;;;;;;;41.50;34.00;;;;;;;-3.19;74.65;97519.14;108927;1296;22485;-83
2023/03/28 02:32:50;;;;;;;37.30;33.00;;;;;;;-3.20;74.80;97517.49;108890;1296;22260;-84
2023/03/28 02:35:25;;;;;;;36.60;32.60;;;;;;;-3.20;74.78;97516.72;108956;1296;22248;-83
2023/03/28 02:38:03;;;;;;;38.90;33.20;;;;;;;-3.18;74.75;97514.64;108907;1296;22288;-86
2023/03/28 02:40:51;;;;;;;35.80;32.00;;;;;;;-3.18;74.66;97514.42;109369;1289;22237;-86
2023/03/28 02:43:21;;;;;;;39.20;33.00;;;;;;;-3.15;74.74;97517.88;109668;1286;22149;-87
2023/03/28 02:45:55;;;;;;;38.50;33.50;;;;;;;-3.13;74.50;97515.75;109683;1289;22287;-87
2023/03/28 02:48:40;;;;;;;34.50;31.00;;;;;;;-3.10;74.88;97511.02;109777;1289;22884;-85
2023/03/28 02:51:11;;;;;;;37.10;31.10;;;;;;;-3.06;74.91;97505.23;109796;1289;22647;-85
2023/03/28 02:54:01;;;;;;;33.00;29.60;;;;;;;-2.97;75.56;97507.33;109744;1289;22113;-83
2023/03/28 02:56:38;;;;;;;33.00;29.70;;;;;;;-2.90;75.60;97506.64;109661;1289;22245;-85
2023/03/28 02:59:30;;;;;;;34.30;30.80;;;;;;;-2.85;75.84;97506.25;109672;1289;22188;-85
2023/03/28 03:01:58;;;;;;;36.90;32.90;;;;;;;-2.80;76.21;97502.13;109605;1289;22123;-85
2023/03/28 03:04:26;;;;;;;33.60;30.10;;;;;;;-2.76;76.35;97497.73;109611;1289;22099;-85
2023/03/28 03:11:44;;;;;;;28.80;25.90;;;;;;;-2.48;77.98;97499.31;109674;1289;22202;-84
2023/03/28 03:14:12;;;;;;;30.60;27.60;;;;;;;-2.39;78.38;97497.63;109677;1283;22814;-84
2023/03/28 03:16:41;;;;;;;26.80;24.00;;;;;;;-2.31;79.45;97499.27;109639;1289;22276;-82
2023/03/28 03:19:10;;;;;;;25.10;22.50;;;;;;;-2.20;81.17;97496.95;109613;1289;22129;-83
2023/03/28 03:21:38;;;;;;;24.50;21.90;;;;;;;-2.14;80.92;97499.11;109661;1289;22281;-83
2023/03/28 03:24:13;;;;;;;24.80;22.40;;;;;;;-2.07;80.98;97499.95;109669;1289;22259;-83
2023/03/28 03:26:42;;;;;;;27.10;24.40;;;;;;;-2.02;81.25;97501.13;109652;1289;22278;-83
2023/03/28 03:29:15;;;;;;;32.10;29.00;;;;;;;-2.01;80.75;97496.98;109658;1289;22984;-83
2023/03/28 03:31:44;;;;;;;32.60;29.10;;;;;;;-2.00;80.36;97499.23;109591;1289;22425;-83
2023/03/28 03:34:35;;;;;;;34.50;31.10;;;;;;;-1.99;79.91;97505.48;109574;1289;22151;-84
2023/03/28 03:37:03;;;;;;;34.50;30.80;;;;;;;-1.96;80.31;97503.39;109568;1289;23018;-83
2023/03/28 03:39:32;;;;;;;33.50;30.10;;;;;;;-1.95;79.64;97504.46;109658;1289;22287;-83
2023/03/28 03:42:02;;;;;;;33.40;30.00;;;;;;;-1.91;80.28;97501.86;109613;1289;22953;-82
2023/03/28 03:44:32;;;;;;;30.50;27.20;;;;;;;-1.94;80.43;97503.81;109523;1289;22162;-82
2023/03/28 03:47:01;;;;;;;33.10;29.60;;;;;;;-1.99;80.24;97500.89;109639;1289;22159;-83
2023/03/28 03:49:29;;;;;;;32.20;28.50;;;;;;;-2.03;80.07;97498.72;109650;1289;22126;-84
2023/03/28 03:51:57;;;;;;;32.80;25.80;;;;;;;-2.03;80.03;97497.49;109621;1289;22111;-86
2023/03/28 03:54:25;;;;;;;27.60;24.60;;;;;;;-2.02;80.17;97497.81;109682;1289;22196;-83
2023/03/28 03:56:53;;;;;;;26.00;23.10;;;;;;;-1.99;80.13;97501.83;109673;1289;22225;-83
2023/03/28 03:59:21;;;;;;;28.30;25.30;;;;;;;-1.98;79.84;97497.86;109658;1289;22242;-83
2023/03/28 04:01:50;;;;;;;29.20;26.30;;;;;;;-1.94;79.71;97495.41;109649;1289;22952;-82
2023/03/28 04:04:24;;;;;;;31.40;28.00;;;;;;;-1.91;79.97;97490.73;109665;1289;22223;-83
2023/03/28 04:07:03;;;;;;;26.80;24.20;;;;;;;-1.91;79.95;97489.18;109593;1289;22177;-83
2023/03/28 04:09:31;;;;;;;27.60;24.40;;;;;;;-1.88;79.84;97490.85;109651;1289;23064;-80
2023/03/28 04:12:04;;;;;;;32.90;25.20;;;;;;;-1.82;80.28;97491.67;109599;1289;22217;-82
2023/03/28 04:14:42;;;;;;;34.40;28.40;;;;;;;-1.74;80.48;97494.75;109664;1289;22229;-82
2023/03/28 04:17:33;;;;;;;35.00;30.10;;;;;;;-1.72;80.17;97495.29;109662;1289;22582;-81
2023/03/28 04:20:10;;;;;;;28.30;25.30;;;;;;;-1.67;80.73;97495.55;109625;1289;23012;-83
2023/03/28 04:22:47;;;;;;;24.70;21.50;;;;;;;-1.66;81.41;97494.58;109555;1289;22233;-83
2023/03/28 04:25:16;;;;;;;24.70;21.20;;;;;;;-1.68;82.10;97493.36;109659;1289;22172;-83
2023/03/28 04:27:47;;;;;;;26.30;23.50;;;;;;;-1.66;82.63;97493.48;109629;1289;22760;-83
2023/03/28 04:30:16;;;;;;;24.80;22.10;;;;;;;-1.66;82.97;97493.84;109657;1289;22209;-84
2023/03/28 04:33:05;;;;;;;27.30;23.60;;;;;;;-1.70;82.87;97500.82;109445;1289;22017;-88
2023/03/28 04:35:37;;;;;;;23.00;20.60;;;;;;;-1.74;83.02;97503.64;109662;1286;22326;-85
2023/03/28 04:38:06;;;;;;;23.40;20.70;;;;;;;-1.74;82.94;97498.83;109571;1289;22960;-85
2023/03/28 04:40:35;;;;;;;21.00;17.80;;;;;;;-1.72;82.73;97496.91;109684;1289;22206;-90
2023/03/28 04:43:17;;;;;;;21.10;18.90;;;;;;;-1.67;83.26;97496.13;109652;1289;22199;-89
2023/03/28 04:45:55;;;;;;;23.70;20.90;;;;;;;-1.66;82.53;97495.00;109576;1289;22235;-84
2023/03/28 04:48:25;;;;;;;23.30;20.60;;;;;;;-1.64;82.90;97497.26;109673;1285;22187;-85
2023/03/28 04:50:53;;;;;;;21.20;19.00;;;;;;;-1.66;83.58;97498.44;109638;1289;22224;-83
2023/03/28 04:53:22;;;;;;;22.30;19.90;;;;;;;-1.64;84.40;97501.12;109646;1289;22291;-82
2023/03/28 04:56:12;;;;;;;24.90;22.30;;;;;;;-1.63;84.63;97499.23;109669;1289;22859;-83
2023/03/28 04:58:41;;;;;;;24.60;21.70;;;;;;;-1.62;84.30;97493.20;109655;1289;22204;-82
2023/03/28 05:01:09;;;;;;;24.60;21.70;;;;;;;-1.59;84.45;97490.55;109564;1289;22257;-82
2023/03/28 05:03:49;;;;;;;25.40;22.80;;;;;;;-1.56;84.27;97484.96;109663;1289;23029;-82
2023/03/28 05:06:17;;;;;;;31.00;27.20;;;;;;;-1.52;84.11;97485.20;109634;1289;23145;-82
2023/03/28 05:08:45;;;;;;;28.50;25.40;;;;;;;-1.46;84.30;97485.02;109654;1289;22298;-82
2023/03/28 05:11:14;;;;;;;29.90;26.30;;;;;;;-1.39;84.42;97483.23;109571;1289;22387;-87
2023/03/28 05:13:42;;;;;;;28.00;25.00;;;;;;;-1.33;84.19;97493.20;109665;1289;23140;-85
2023/03/28 05:16:28;;;;;;;23.90;21.30;;;;;;;-1.31;84.31;97492.48;109750;1289;22201;-84
2023/03/28 05:19:14;;;;;;;25.10;22.70;;;;;;;-1.35;84.59;97490.75;109810;1289;22263;-84
2023/03/28 05:22:01;;;;;;;20.70;18.80;;;;;;;-1.34;84.94;97492.63;109690;1289;22196;-85
2023/03/28 05:24:29;;;;;;;21.40;19.10;;;;;;;-1.35;85.48;97494.55;109685;1284;22383;-86
2023/03/28 05:26:57;;;;;;;23.40;21.10;;;;;;;-1.41;85.66;97491.27;109689;1289;22990;-86
2023/03/28 05:29:26;;;;;;;19.20;17.30;;;;;;;-1.45;86.26;97494.84;109682;1289;22333;-86
2023/03/28 05:31:54;;;;;;;20.00;17.50;;;;;;;-1.47;86.99;97497.38;109664;1289;22204;-87
2023/03/28 05:34:28;;;;;;;16.60;14.90;;;;;;;-1.51;87.40;97498.40;109578;1289;22183;-87
2023/03/28 05:36:57;;;;;;;18.80;16.90;;;;;;;-1.52;88.21;97497.77;109680;1289;22394;-85
2023/03/28 05:39:28;;;;;;;17.70;16.00;;;;;;;-1.57;88.32;97501.48;109588;1289;23007;-85
2023/03/28 05:42:07;;;;;;;19.30;17.30;;;;;;;-1.59;89.09;97500.17;109507;1289;22153;-85
2023/03/28 05:44:38;;;;;;;22.50;20.00;;;;;;;-1.63;89.58;97506.05;109565;1289;22211;-85
2023/03/28 05:47:29;;;;;;;22.60;20.40;;;;;;;-1.64;89.85;97509.00;109624;1289;22257;-84
2023/03/28 05:49:57;;;;;;;23.50;18.10;;;;;;;-1.61;90.71;97512.48;109592;1289;22629;-85
2023/03/28 05:52:26;;;;;;;18.50;16.30;;;;;;;-1.59;91.49;97508.67;109717;1289;22165;-84
2023/03/28 05:54:57;;;;;;;18.60;16.60;;;;;;;-1.60;91.12;97511.72;109702;1289;22144;-84
2023/03/28 05:57:25;;;;;;;20.10;18.00;;;;;;;-1.56;91.03;97513.13;109702;1289;22141;-83
2023/03/28 05:59:53;;;;;;;20.20;18.20;;;;;;;-1.51;91.31;97515.00;109695;1289;22244;-85
2023/03/28 06:02:23;;;;;;;20.40;18.40;;;;;;;-1.45;91.35;97516.95;109527;1289;22965;-84
2023/03/28 06:04:56;;;;;;;19.10;17.10;;;;;;;-1.38;91.12;97514.90;109585;1289;22938;-84
2023/03/28 06:07:25;;;;;;;19.50;17.60;;;;;;;-1.27;91.01;97521.27;109658;1287;23005;-86
2023/03/28 06:10:11;;;;;;;20.40;18.50;;;;;;;-1.13;90.85;97518.64;109655;1289;22199;-85
2023/03/28 06:12:39;;;;;;;23.50;21.20;;;;;;;-1.10;90.59;97522.21;109649;1289;22122;-90
2023/03/28 06:15:09;;;;;;;23.50;21.10;;;;;;;-1.07;90.33;97522.97;109669;1289;22203;-85
2023/03/28 06:17:38;;;;;;;21.20;19.20;;;;;;;-1.00;90.20;97523.52;109573;1289;22321;-86
2023/03/28 06:20:08;;;;;;;24.70;22.40;;;;;;;-0.93;90.13;97523.72;109586;1289;23044;-85
2023/03/28 06:22:37;;;;;;;25.40;23.00;;;;;;;-0.80;90.06;97530.33;109568;1289;22270;-84
2023/03/28 06:25:08;;;;;;;21.50;19.30;;;;;;;-0.77;89.64;97526.24;109693;1289;22689;-88
2023/03/28 06:27:36;;;;;;;19.70;17.80;;;;;;;-0.72;89.50;97527.33;109676;1289;22220;-82
2023/03/28 06:30:05;;;;;;;16.40;14.90;;;;;;;-0.60;89.30;97532.20;109667;1289;22967;-82
2023/03/28 06:32:41;;;;;;;17.90;16.20;;;;;;;-0.46;88.71;97534.27;109674;1289;22292;-81
2023/03/28 06:35:09;;;;;;;17.70;16.00;;;;;;;-0.31;88.37;97540.10;109674;1289;22340;-82
2023/03/28 06:37:37;;;;;;;16.70;15.20;;;;;;;-0.24;87.92;97536.72;109671;1289;23032;-82
2023/03/28 06:40:08;;;;;;;15.70;14.20;;;;;;;-0.13;87.76;97537.07;109666;1289;22237;-83
2023/03/28 06:42:36;;;;;;;16.40;14.90;;;;;;;-0.05;87.42;97541.18;109552;1289;22490;-82
2023/03/28 06:45:22;;;;;;;14.50;13.20;;;;;;;0.00;87.06;97540.79;109667;1289;22293;-83
2023/03/28 06:48:12;;;;;;;12.40;11.30;;;;;;;-0.07;86.16;97540.88;109574;1289;22312;-83
2023/03/28 06:51:11;;;;;;;12.50;11.30;;;;;;;-0.09;86.11;97539.57;109694;1289;22099;-82
2023/03/28 06:53:40;;;;;;;17.80;16.30;;;;;;;-0.15;86.15;97548.15;109570;1289;22826;-82
2023/03/28 06:56:10;;;;;;;16.10;14.60;;;;;;;-0.14;85.97;97554.48;109697;1289;22154;-82
2023/03/28 06:58:38;;;;;;;12.90;11.70;;;;;;;-0.21;85.83;97555.64;109666;1289;23052;-83
2023/03/28 07:01:09;;;;;;;13.30;12.00;;;;;;;-0.30;85.22;97557.54;109650;1289;22199;-83
2023/03/28 07:03:37;;;;;;;12.30;11.00;;;;;;;-0.29;85.95;97567.77;109813;1289;22658;-83
2023/03/28 07:06:08;;;;;;;12.80;11.70;;;;;;;-0.38;86.29;97561.93;109701;1289;22159;-86
2023/03/28 07:08:37;;;;;;;13.90;12.50;;;;;;;-0.48;87.36;97566.73;109727;1289;22747;-86
2023/03/28 07:11:06;;;;;;;8.80;7.90;;;;;;;-0.53;87.54;97571.06;109574;1289;23025;-84
2023/03/28 07:13:34;;;;;;;8.00;7.10;;;;;;;-0.56;87.06;97572.96;109503;1289;22232;-83
2023/03/28 07:16:09;;;;;;;8.70;7.60;;;;;;;-0.55;86.83;97578.91;109534;1289;22152;-84
2023/03/28 07:18:39;;;;;;;9.20;7.30;;;;;;;-0.54;86.58;97581.06;109563;1289;22931;-84
2023/03/28 07:21:13;;;;;;;9.20;8.40;;;;;;;-0.56;86.60;97584.31;109533;1289;22254;-84
2023/03/28 07:23:41;;;;;;;9.80;8.60;;;;;;;-0.43;86.50;97586.98;109524;1289;22246;-84
2023/03/28 07:26:12;;;;;;;10.20;9.00;;;;;;;-0.29;85.28;97581.27;109659;1289;22266;-83
2023/03/28 07:28:40;;;;;;;11.10;9.90;;;;;;;-0.15;83.50;97597.20;109568;1285;22669;-83
2023/03/28 07:31:09;;;;;;;9.20;8.30;;;;;;;-0.14;82.89;97593.25;109712;1289;22123;-85
2023/03/28 07:33:38;;;;;;;8.00;7.20;;;;;;;-0.13;82.10;97593.27;109584;1276;22208;-87
2023/03/28 07:36:19;;;;;;;8.90;8.00;;;;;;;-0.16;82.54;97600.14;109702;1289;22695;-88
2023/03/28 07:38:50;;;;;;;10.20;8.80;;;;;;;-0.18;82.38;97604.51;109658;1289;23088;-85
2023/03/28 07:41:21;;;;;;;10.20;8.70;;;;;;;-0.21;82.79;97610.86;109562;1289;22435;-85
2023/03/28 07:43:49;;;;;;;9.40;8.30;;;;;;;-0.17;82.44;97610.84;109530;1289;22141;-87
2023/03/28 07:46:19;;;;;;;8.50;7.40;;;;;;;-0.08;82.30;97614.59;109685;1289;22858;-86
2023/03/28 07:48:48;;;;;;;10.00;7.40;;;;;;;0.02;81.72;97620.49;109584;1289;22231;-86
2023/03/28 07:51:16;;;;;;;8.60;7.60;;;;;;;0.06;80.19;97624.77;109679;1289;22281;-85
2023/03/28 07:53:44;;;;;;;9.20;8.20;;;;;;;0.04;80.72;97625.35;109566;1289;22864;-84
2023/03/28 07:56:13;;;;;;;10.10;9.10;;;;;;;0.06;80.64;97633.74;109581;1289;22829;-85
2023/03/28 07:59:04;;;;;;;10.30;9.30;;;;;;;0.03;80.37;97644.73;109556;1289;22243;-85
2023/03/28 08:01:33;;;;;;;8.20;7.40;;;;;;;0.07;80.97;97641.63;109579;1289;22232;-85
2023/03/28 08:04:02;;;;;;;7.70;6.90;;;;;;;0.13;78.84;97645.02;109717;1289;22214;-86
2023/03/28 08:06:53;;;;;;;9.10;7.90;;;;;;;0.02;76.01;97650.38;109759;1289;22197;-86
2023/03/28 08:09:21;;;;;;;10.30;7.60;;;;;;;-0.07;76.27;97651.12;109830;1289;22190;-85
2023/03/28 08:20:59;;;;;;;8.90;8.00;;;;;;;-0.22;78.58;97677.25;109717;1289;22120;-86
2023/03/28 08:23:31;;;;;;;8.40;7.60;;;;;;;-0.19;78.86;97686.73;109831;1289;22192;-85
2023/03/28 08:26:20;;;;;;;7.10;6.40;;;;;;;-0.14;78.18;97674.17;109784;1271;22112;-85
2023/03/28 08:28:53;;;;;;;7.70;6.70;;;;;;;-0.10;77.40;97686.22;109696;1289;22393;-86
2023/03/28 08:31:25;;;;;;;9.90;6.90;;;;;;;-0.08;75.82;97697.23;109577;1289;22205;-84
2023/03/28 08:33:56;;;;;;;8.70;6.90;;;;;;;-0.11;75.41;97696.33;109552;1289;22448;-84
2023/03/28 08:36:28;;;;;;;8.40;5.80;;;;;;;-0.17;74.20;97703.29;109527;1289;22256;-84
2023/03/28 08:38:59;;;;;;;7.20;5.60;;;;;;;-0.29;73.75;97697.66;109664;1289;22217;-84
2023/03/28 08:41:52;;;;;;;7.50;6.10;;;;;;;-0.36;74.74;97708.57;109661;1289;22239;-84
2023/03/28 08:44:26;;;;;;;7.90;6.20;;;;;;;-0.26;75.53;97706.23;109633;1289;23079;-84
2023/03/28 08:47:04;;;;;;;7.70;6.60;;;;;;;-0.19;75.55;97704.58;109579;1289;22261;-85
2023/03/28 08:49:44;;;;;;;7.20;6.50;;;;;;;-0.19;75.15;97714.33;109675;1289;22239;-85
2023/03/28 08:52:17;;;;;;;8.70;6.70;;;;;;;-0.21;74.89;97739.93;109669;1289;22298;-85
2023/03/28 08:55:13;;;;;;;7.60;5.10;;;;;;;-0.44;75.71;97775.21;109573;1289;22147;-83
2023/03/28 08:57:42;;;;;;;6.30;4.50;;;;;;;-0.95;77.22;97760.48;109681;1289;22264;-84
2023/03/28 09:00:29;;;;;;;8.40;5.10;;;;;;;-1.32;80.24;97766.28;109669;1289;22252;-84
2023/03/28 09:02:57;;;;;;;5.80;4.50;;;;;;;-1.79;85.06;97761.14;109488;1289;22832;-84
2023/03/28 09:05:50;;;;;;;7.00;4.50;;;;;;;-2.00;87.21;97773.55;109521;1289;22278;-84
2023/03/28 09:08:21;;;;;;;6.90;4.80;;;;;;;-2.10;89.80;97769.84;109656;1289;22286;-85
2023/03/28 09:11:12;;;;;;;12.70;5.40;;;;;;;-2.08;90.93;97774.29;109664;1289;22211;-84
2023/03/28 09:13:46;;;;;;;6.60;5.90;;;;;;;-1.97;91.01;97777.23;109654;1289;22196;-84
2023/03/28 09:16:23;;;;;;;6.10;5.50;;;;;;;-1.90;91.09;97779.40;109672;1289;22691;-84
2023/03/28 09:19:09;;;;;;;6.20;5.60;;;;;;;-1.81;90.87;97786.81;109659;1289;23008;-84
2023/03/28 09:22:09;;;;;;;7.60;6.90;;;;;;;-1.61;91.04;97782.40;109644;1289;22909;-84
2023/03/28 09:25:07;;;;;;;6.60;5.90;;;;;;;-1.31;90.87;97781.77;109564;1289;23141;-85
2023/03/28 09:27:51;;;;;;;6.20;5.40;;;;;;;-1.07;89.70;97777.18;109662;1289;22272;-84
2023/03/28 09:30:28;;;;;;;10.40;6.70;;;;;;;-0.80;89.04;97789.86;109672;1289;22838;-83
2023/03/28 09:32:59;;;;;;;7.00;5.70;;;;;;;-0.47;87.46;97769.52;109550;1289;22241;-82
2023/03/28 09:35:30;;;;;;;6.50;5.50;;;;;;;-0.22;86.54;97775.12;109544;1289;22295;-82
2023/03/28 09:38:05;;;;;;;7.10;6.00;;;;;;;0.15;86.07;97776.45;109643;1289;22194;-82
2023/03/28 09:40:34;;;;;;;5.50;5.00;;;;;;;0.39;82.77;97779.48;109655;1289;22166;-83
2023/03/28 09:43:43;;;;;;;5.60;4.90;;;;;;;0.50;77.04;97794.79;109560;1289;22530;-83
2023/03/28 09:46:48;;;;;;;4.70;4.20;;;;;;;0.53;74.96;97794.79;109643;1289;22198;-83
2023/03/28 09:49:24;;;;;;;6.40;4.20;;;;;;;0.59;71.97;97812.05;109766;1289;22147;-79
2023/03/28 09:51:56;;;;;;;4.90;4.40;;;;;;;0.65;70.50;97797.20;109786;1289;22128;-80
2023/03/28 09:54:34;;;;;;;5.20;4.40;;;;;;;0.70;68.65;97796.87;109765;1289;22271;-82
2023/03/28 09:57:04;;;;;;;6.80;4.10;;;;;;;0.75;67.89;97793.63;109609;1289;22213;-83
2023/03/28 09:59:57;;;;;;;4.90;4.40;;;;;;;0.87;65.26;97794.68;109674;1289;22154;-83
2023/03/28 10:02:32;;;;;;;6.80;4.50;;;;;;;1.02;65.36;97779.23;109692;1289;22199;-83
2023/03/28 10:05:30;;;;;;;5.20;4.20;;;;;;;1.27;64.73;97794.68;109714;1289;22099;-88
2023/03/28 10:08:21;;;;;;;5.50;3.80;;;;;;;1.39;62.66;97809.02;109715;1289;22236;-85
2023/03/28 10:11:05;;;;;;;4.90;4.20;;;;;;;1.34;61.93;97819.83;109561;1289;22177;-86
2023/03/28 10:13:36;;;;;;;5.40;4.50;;;;;;;1.15;60.85;97824.77;109557;1289;22205;-84
2023/03/28 10:16:05;;;;;;;6.50;5.40;;;;;;;1.00;63.48;97843.29;109534;1289;22336;-84
2023/03/28 10:18:34;;;;;;;6.90;6.20;;;;;;;0.94;65.98;97845.37;109676;1289;22126;-84
2023/03/28 10:21:23;;;;;;;10.00;6.00;;;;;;;0.95;68.07;97842.41;109651;1289;22739;-84
2023/03/28 10:24:05;;;;;;;7.40;5.50;;;;;;;1.02;69.07;97839.23;109462;1289;22235;-85
2023/03/28 10:26:33;;;;;;;7.20;5.30;;;;;;;0.99;69.92;97849.39;109564;1289;22232;-83
2023/03/28 10:29:07;;;;;;;7.40;5.80;;;;;;;0.98;67.28;97849.63;109494;1289;22128;-83
2023/03/28 10:31:37;;;;;;;5.40;4.90;;;;;;;1.03;67.37;97841.61;109655;1289;22290;-85
2023/03/28 10:34:32;;;;;;;5.40;4.80;;;;;;;1.31;67.77;97835.55;109490;1289;22286;-85
2023/03/28 10:37:41;;;;;;;5.40;4.30;;;;;;;1.59;64.84;97844.89;109682;1289;22879;-85
2023/03/28 10:40:24;;;;;;;4.60;4.00;;;;;;;1.57;62.53;97839.55;108948;1295;22897;-86
2023/03/28 10:43:20;;;;;;;7.90;4.90;;;;;;;1.56;63.01;97844.20;108779;1295;22336;-85
2023/03/28 10:46:26;;;;;;;5.70;4.80;;;;;;;1.73;63.97;97829.67;108841;1286;22938;-88
2023/03/28 10:49:18;;;;;;;9.00;4.90;;;;;;;1.97;62.31;97833.23;108772;1295;22147;-87
2023/03/28 10:51:55;;;;;;;5.60;5.00;;;;;;;2.02;60.45;97826.05;108964;1295;22900;-84
2023/03/28 10:54:43;;;;;;;7.00;4.50;;;;;;;2.04;59.22;97838.10;109030;1295;22941;-85
2023/03/28 10:57:35;;;;;;;8.40;5.60;;;;;;;1.92;56.33;97838.30;108897;1295;22310;-85
2023/03/28 11:00:12;;;;;;;6.20;5.10;;;;;;;1.75;55.06;97849.96;109043;1296;22297;-85
2023/03/28 11:03:00;;;;;;;7.50;5.80;;;;;;;1.63;54.53;97853.45;108951;1295;22408;-84
2023/03/28 11:05:56;;;;;;;7.10;5.40;;;;;;;1.53;54.58;97868.42;108877;1295;22292;-85
2023/03/28 11:08:46;;;;;;;6.50;5.00;;;;;;;1.29;57.32;97882.83;108955;1295;22263;-84
2023/03/28 11:11:36;;;;;;;8.10;6.70;;;;;;;1.08;58.52;97878.77;108973;1295;22277;-84
2023/03/28 11:14:20;;;;;;;9.50;6.30;;;;;;;1.03;58.27;97872.35;109052;1296;22142;-86
2023/03/28 11:16:59;;;;;;;5.80;4.90;;;;;;;1.25;58.43;97871.88;109474;1289;22228;-85
2023/03/28 11:19:54;;;;;;;7.20;6.20;;;;;;;1.32;59.49;97875.76;109642;1289;23099;-86
2023/03/28 11:22:45;;;;;;;7.70;6.20;;;;;;;1.35;60.08;97882.57;109610;1289;22273;-84
2023/03/28 11:25:47;;;;;;;9.50;7.00;;;;;;;1.29;61.86;97871.41;109671;1289;22269;-84
2023/03/28 11:28:51;;;;;;;7.90;6.20;;;;;;;1.52;62.79;97861.16;109663;1289;22276;-84
2023/03/28 11:31:25;;;;;;;8.50;6.90;;;;;;;1.83;62.74;97866.50;109588;1289;22219;-84
2023/03/28 11:34:20;;;;;;;8.20;7.10;;;;;;;1.88;61.34;97864.50;109574;1289;22298;-85
2023/03/28 11:36:57;;;;;;;6.60;5.90;;;;;;;1.73;60.15;97874.59;109714;1289;22157;-92
2023/03/28 11:39:51;;;;;;;6.80;5.80;;;;;;;1.51;61.21;97891.13;109512;1289;22694;-83
2023/03/28 11:42:41;;;;;;;7.30;6.20;;;;;;;1.02;62.81;97894.38;109655;1289;22220;-82
2023/03/28 11:45:26;;;;;;;9.60;8.20;;;;;;;0.72;63.62;97887.29;109640;1289;22181;-83
2023/03/28 11:48:25;;;;;;;11.00;7.60;;;;;;;0.67;64.12;97885.96;109667;1289;22203;-85
2023/03/28 11:51:16;;;;;;;9.90;7.70;;;;;;;1.01;64.01;97885.17;109641;1289;22185;-84
2023/03/28 11:53:55;;;;;;;;;;;;;;;1.43;63.52;97875.09;109651;1289;22348;-84
2023/03/28 11:56:42;;;;;;;8.00;7.20;;;;;;;1.78;63.23;97869.55;109575;1289;22233;-86
2023/03/28 11:59:21;;;;;;;8.00;5.90;;;;;;;2.13;61.63;97880.48;109658;1289;22979;-84
2023/03/28 12:01:59;;;;;;;5.80;5.10;;;;;;;2.26;58.81;97877.05;109651;1289;22208;-83
2023/03/28 12:04:41;;;;;;;6.30;5.20;;;;;;;2.35;58.37;97874.03;109455;1289;23009;-82
2023/03/28 12:07:29;;;;;;;5.60;4.90;;;;;;;2.46;54.94;97882.95;109601;1289;22195;-84
2023/03/28 12:10:35;;;;;;;6.40;4.90;;;;;;;2.51;55.38;97870.10;109619;1289;22192;-86
2023/03/28 12:13:30;;;;;;;6.10;4.80;;;;;;;2.72;54.21;97878.96;109617;1289;22320;-84
2023/03/28 12:16:12;;;;;;;6.30;4.30;;;;;;;2.31;55.90;97885.94;109488;1289;23002;-84
2023/03/28 12:18:46;;;;;;;7.30;5.80;;;;;;;1.60;60.10;97885.89;109511;1289;193476;-83